This is the latest recevied weather packets stored in our database for station/object IK2YOU-3. If no packets are shown the sender has not sent any weather packets the latest 10 day(s).
| Time | Temp. | Humidity | Pressure | Rain* | Wind** | Luminosity | Snow |
|---|---|---|---|---|---|---|---|
| 1778094245 | 15° C | 82% | 1007.1 hPa | 0 mm | - | 0 W/m² | - |
| 1778093645 | 15° C | 82% | 1006.9 hPa | 0 mm | - | 0 W/m² | - |
| 1778093045 | 15° C | 82% | 1006.7 hPa | 0 mm | - | 0 W/m² | - |
| 1778092575 | 15° C | 82% | 1006.3 hPa | 0 mm | - | 0 W/m² | - |
| 1778091846 | 15° C | 81% | 1006.2 hPa | 0 mm | - | 0 W/m² | - |
| 1778091246 | 15.56° C | 81% | 1006.1 hPa | 0 mm | - | 4 W/m² | - |
| 1778090660 | 15.56° C | 79% | 1005.9 hPa | 0 mm | - | 9 W/m² | - |
| 1778090046 | 16.11° C | 78% | 1005.8 hPa | 0 mm | - | 11 W/m² | - |
| 1778089446 | 16.11° C | 77% | 1005.5 hPa | 0 mm | - | 15 W/m² | - |
| 1778088845 | 16.67° C | 77% | 1005.3 hPa | 0 mm | - | 22 W/m² | - |
| 1778088245 | 16.67° C | 76% | 1005.2 hPa | 0 mm | - | 26 W/m² | - |
| 1778087645 | 16.67° C | 76% | 1005.1 hPa | 0 mm | - | 40 W/m² | - |
| 1778087045 | 17.22° C | 76% | 1004.9 hPa | 0 mm | - | 42 W/m² | - |
| 1778086445 | 17.22° C | 76% | 1004.7 hPa | 0 mm | - | 37 W/m² | - |
| 1778085845 | 17.22° C | 75% | 1004.5 hPa | 0 mm | - | 109 W/m² | - |
| 1778085245 | 18.33° C | 73% | 1004.3 hPa | 0 mm | - | 120 W/m² | - |
| 1778084645 | 18.33° C | 71% | 1004.2 hPa | 0 mm | - | 132 W/m² | - |
| 1778084045 | 20° C | 68% | 1003.6 hPa | 0 mm | - | 158 W/m² | - |
| 1778083445 | 22.78° C | 55% | 1003.6 hPa | 0 mm | - | 195 W/m² | - |
| 1778082846 | 21.67° C | 56% | 1003.4 hPa | 0 mm | - | 238 W/m² | - |
| 1778082245 | 21.67° C | 59% | 1003.3 hPa | 0 mm | - | 62 W/m² | - |
| 1778081645 | 21.67° C | 62% | 1003.4 hPa | 0 mm | - | 68 W/m² | - |
| 1778081045 | 21.67° C | 64% | 1003.4 hPa | 0 mm | - | 41 W/m² | - |
| 1778080445 | 22.22° C | 71% | 1003.5 hPa | 0 mm | - | 375 W/m² | - |
| 1778079846 | 22.22° C | 69% | 1003.5 hPa | 0 mm | - | 346 W/m² | - |
* Rain latest hour (hover to see other rain measurements)
** Current wind speed in m/s (hover to see current wind gust speed)